Time;durP1;ratioP1;P1;durP2;ratioP2;P2;SDS_P1;SDS_P2;PMS_P1;PMS_P2;Temp;Humidity;BMP_temperature;BMP_pressure;BME280_temperature;BME280_humidity;BME280_pressure;Samples;Min_cycle;Max_cycle;Signal;HPM_P1;HPM_P2
2023/12/28 00:02:13;;;;;;;7.18;3.40;;;-0.90;99.90;;;;;;5055479;28;20025;-78
2023/12/28 00:04:39;;;;;;;6.05;3.67;;;-1.00;99.90;;;;;;5052576;28;20013;-78
2023/12/28 00:07:05;;;;;;;6.40;3.17;;;-1.10;99.90;;;;;;5050179;28;20028;-74
2023/12/28 00:09:31;;;;;;;6.45;3.92;;;-1.20;99.90;;;;;;5049009;28;20079;-77
2023/12/28 00:11:56;;;;;;;4.80;2.78;;;-1.20;99.90;;;;;;5055494;28;20021;-80
2023/12/28 00:14:22;;;;;;;8.52;4.15;;;-1.20;99.90;;;;;;5055105;28;20044;-78
2023/12/28 00:16:48;;;;;;;4.60;2.97;;;-1.20;99.90;;;;;;5054779;28;20396;-76
2023/12/28 00:19:13;;;;;;;5.22;2.97;;;-1.30;99.90;;;;;;5038716;28;20037;-87
2023/12/28 00:21:39;;;;;;;3.72;2.60;;;-1.30;99.90;;;;;;5046912;28;20026;-77
2023/12/28 00:24:05;;;;;;;5.82;3.40;;;-1.40;99.90;;;;;;5024820;28;20045;-75
2023/12/28 00:26:31;;;;;;;8.32;4.55;;;-1.50;99.90;;;;;;5041864;28;20048;-74
2023/12/28 00:28:58;;;;;;;5.40;3.40;;;-1.20;99.90;;;;;;5046039;28;20072;-74
2023/12/28 00:31:24;;;;;;;9.38;5.10;;;-1.00;99.90;;;;;;5048270;28;20036;-75
2023/12/28 00:33:50;;;;;;;6.22;3.35;;;-0.90;99.90;;;;;;5044482;28;20025;-80
2023/12/28 00:36:16;;;;;;;5.10;3.28;;;-0.50;99.90;;;;;;5016551;28;20290;-91
2023/12/28 00:38:42;;;;;;;7.28;4.93;;;-0.90;99.90;;;;;;5030801;28;20005;-74
2023/12/28 00:41:10;;;;;;;5.78;3.58;;;-1.00;99.90;;;;;;5048881;28;20047;-76
2023/12/28 00:43:36;;;;;;;8.20;3.10;;;-1.00;99.90;;;;;;5051367;28;20021;-75
2023/12/28 00:46:16;;;;;;;5.13;2.67;;;-1.00;99.90;;;;;;5048023;28;20024;-74
2023/12/28 00:48:42;;;;;;;6.20;2.85;;;-1.10;99.90;;;;;;5055390;28;20033;-75
2023/12/28 00:51:07;;;;;;;4.35;3.25;;;-1.10;99.90;;;;;;5043618;28;20033;-77
2023/12/28 00:53:33;;;;;;;4.20;3.15;;;-1.00;99.90;;;;;;5054357;28;20009;-77
2023/12/28 00:55:59;;;;;;;5.93;3.22;;;-1.10;99.90;;;;;;5056544;28;20009;-74
2023/12/28 00:58:28;;;;;;;4.70;3.50;;;-1.10;99.90;;;;;;5057977;28;20021;-75
2023/12/28 01:00:56;;;;;;;7.43;3.45;;;-1.20;99.90;;;;;;5057096;28;20030;-74
2023/12/28 01:03:22;;;;;;;4.72;3.38;;;-1.20;99.90;;;;;;5040068;28;20112;-76
2023/12/28 01:06:15;;;;;;;10.85;4.97;;;-1.20;99.90;;;;;;5056057;28;20489;-75
2023/12/28 01:08:41;;;;;;;4.68;2.92;;;-1.30;99.90;;;;;;5030525;28;20041;-91
2023/12/28 01:11:06;;;;;;;6.43;2.85;;;-1.30;99.90;;;;;;5026993;28;20041;-84
2023/12/28 01:13:32;;;;;;;5.68;2.90;;;-1.10;99.90;;;;;;5033875;28;20355;-91
2023/12/28 01:15:58;;;;;;;6.25;3.17;;;-1.40;99.90;;;;;;5023578;28;20112;-77
2023/12/28 01:18:24;;;;;;;8.00;3.40;;;-1.50;99.90;;;;;;5056698;28;20022;-76
2023/12/28 01:20:49;;;;;;;6.15;3.35;;;-1.40;99.90;;;;;;5047161;28;20052;-91
2023/12/28 01:23:15;;;;;;;5.63;2.70;;;-1.40;99.90;;;;;;5019742;28;20025;-80
2023/12/28 01:25:40;;;;;;;5.90;3.00;;;-1.50;99.90;;;;;;5039691;28;20510;-78
2023/12/28 01:28:06;;;;;;;7.57;3.05;;;-1.40;99.90;;;;;;5044714;28;20032;-88
2023/12/28 01:30:34;;;;;;;5.35;3.38;;;-1.30;99.90;;;;;;5042422;28;20039;-88
2023/12/28 01:32:59;;;;;;;4.88;2.88;;;-1.40;99.90;;;;;;5025775;28;20021;-75
2023/12/28 01:35:25;;;;;;;6.53;3.13;;;-1.40;99.90;;;;;;5056403;28;20031;-75
2023/12/28 01:37:50;;;;;;;6.97;3.55;;;-1.40;99.90;;;;;;5051712;28;20053;-84
2023/12/28 01:40:17;;;;;;;5.35;3.60;;;-1.50;99.90;;;;;;5023113;28;20112;-81
2023/12/28 01:42:42;;;;;;;8.30;3.22;;;-1.50;99.90;;;;;;5054250;28;20093;-76
2023/12/28 01:45:08;;;;;;;7.28;3.15;;;-1.50;99.90;;;;;;5024518;28;20065;-91
2023/12/28 01:47:34;;;;;;;6.65;3.35;;;-1.50;99.90;;;;;;5023339;28;20025;-77
2023/12/28 01:50:01;;;;;;;5.60;3.47;;;-1.60;99.90;;;;;;5055438;28;20056;-78
2023/12/28 01:52:28;;;;;;;6.35;3.10;;;-1.60;99.90;;;;;;5028839;28;20029;-80
2023/12/28 01:54:54;;;;;;;7.60;3.42;;;-1.20;99.90;;;;;;5047481;28;20025;-87
2023/12/28 01:57:22;;;;;;;4.32;3.00;;;-1.40;99.90;;;;;;5065431;28;20023;-81
2023/12/28 01:59:48;;;;;;;4.07;2.45;;;-1.70;99.90;;;;;;5042920;28;20047;-77
2023/12/28 02:02:14;;;;;;;6.22;3.53;;;-1.80;99.90;;;;;;5093386;22;20056;-75
2023/12/28 02:04:40;;;;;;;6.00;2.95;;;-1.70;99.90;;;;;;5075149;28;20009;-76
2023/12/28 02:07:06;;;;;;;4.40;3.03;;;-1.70;99.90;;;;;;5093344;28;20035;-77
2023/12/28 02:09:34;;;;;;;6.40;3.85;;;-1.70;99.90;;;;;;5094428;28;20047;-76
2023/12/28 02:12:00;;;;;;;6.95;3.08;;;-1.70;99.90;;;;;;5075049;28;20044;-75
2023/12/28 02:14:26;;;;;;;5.30;3.30;;;-1.70;99.90;;;;;;5074736;28;20029;-76
2023/12/28 02:17:07;;;;;;;5.57;2.78;;;-1.70;99.90;;;;;;5075417;28;20029;-75
2023/12/28 02:19:47;;;;;;;4.60;2.92;;;-1.60;99.90;;;;;;5051126;28;20021;-85
2023/12/28 02:22:15;;;;;;;3.42;2.53;;;-1.50;99.90;;;;;;5062405;28;20009;-76
2023/12/28 02:25:02;;;;;;;4.05;2.53;;;-1.50;99.90;;;;;;5063840;28;20026;-86
2023/12/28 02:27:28;;;;;;;4.45;2.22;;;-1.50;99.90;;;;;;5053152;28;20053;-76
2023/12/28 02:29:56;;;;;;;5.00;2.00;;;-1.40;99.90;;;;;;5052110;28;20080;-92
2023/12/28 02:32:45;;;;;;;5.43;2.10;;;-1.30;99.90;;;;;;5053027;28;20028;-88
2023/12/28 02:35:39;;;;;;;3.00;2.10;;;-1.30;99.90;;;;;;5066976;28;20036;-75
2023/12/28 02:38:11;;;;;;;3.25;2.30;;;-1.30;99.90;;;;;;5055520;28;20025;-86
2023/12/28 02:40:39;;;;;;;3.58;2.47;;;-1.40;99.90;;;;;;5057824;28;20020;-86
2023/12/28 02:43:09;;;;;;;5.10;2.45;;;-1.30;99.90;;;;;;5070057;28;20037;-76
2023/12/28 02:45:35;;;;;;;3.55;2.33;;;-1.40;99.90;;;;;;5075225;28;20031;-84
2023/12/28 02:48:03;;;;;;;2.40;2.05;;;-1.40;99.90;;;;;;5076619;28;20033;-74
2023/12/28 02:50:32;;;;;;;5.35;2.40;;;-1.40;99.90;;;;;;5071713;28;20055;-74
2023/12/28 02:52:59;;;;;;;6.57;2.33;;;-1.40;99.90;;;;;;5076055;28;20029;-81
2023/12/28 02:55:25;;;;;;;5.03;2.50;;;-1.40;99.90;;;;;;5063953;28;20037;-78
2023/12/28 02:57:54;;;;;;;3.65;2.38;;;-1.40;99.90;;;;;;5057948;28;20099;-77
2023/12/28 03:00:20;;;;;;;;;;;-1.30;99.90;;;;;;5057842;28;20021;-75
2023/12/28 03:02:48;;;;;;;5.57;2.92;;;-1.40;99.90;;;;;;5066906;28;19916;-77
2023/12/28 03:05:18;;;;;;;4.10;2.70;;;-1.40;99.90;;;;;;5071539;28;20033;-75
2023/12/28 03:07:44;;;;;;;3.38;2.50;;;-1.50;99.90;;;;;;5052550;28;20059;-92
2023/12/28 03:10:11;;;;;;;5.15;2.70;;;-1.50;99.90;;;;;;5056890;28;20079;-76
2023/12/28 03:12:37;;;;;;;3.72;2.25;;;-1.50;99.90;;;;;;5057056;28;20024;-84
2023/12/28 03:15:04;;;;;;;5.00;3.33;;;-1.60;99.90;;;;;;5050906;28;20029;-80
2023/12/28 03:17:30;;;;;;;3.35;2.90;;;-1.60;99.90;;;;;;5060349;28;20025;-79
2023/12/28 03:19:58;;;;;;;4.20;2.60;;;-1.60;99.90;;;;;;5054553;28;20024;-75
2023/12/28 03:22:23;;;;;;;6.35;2.60;;;-1.70;99.90;;;;;;5052282;28;20102;-83
2023/12/28 03:24:49;;;;;;;4.63;2.22;;;-1.70;99.90;;;;;;5051149;28;20021;-87
2023/12/28 03:27:15;;;;;;;4.43;2.97;;;-1.60;99.90;;;;;;5069214;28;20158;-75
2023/12/28 03:29:44;;;;;;;3.97;2.90;;;-1.70;99.90;;;;;;5071003;28;20051;-79
2023/12/28 03:32:09;;;;;;;7.20;3.17;;;-2.60;99.90;;;;;;5056110;28;20051;-78
2023/12/28 03:34:35;;;;;;;7.60;3.85;;;-1.70;99.90;;;;;;5066763;28;20104;-79
2023/12/28 03:37:01;;;;;;;3.83;2.63;;;-1.70;99.90;;;;;;5067704;28;20067;-77
2023/12/28 03:39:29;;;;;;;5.88;3.60;;;-1.60;99.90;;;;;;5052186;28;20060;-77
2023/12/28 03:41:54;;;;;;;4.80;3.38;;;-1.70;99.90;;;;;;5064888;28;20031;-75
2023/12/28 03:44:21;;;;;;;4.40;2.53;;;-1.70;99.90;;;;;;5068240;28;20017;-75
2023/12/28 03:46:48;;;;;;;4.07;2.17;;;-1.70;99.90;;;;;;5046851;28;20056;-82
2023/12/28 03:49:21;;;;;;;5.55;2.60;;;-1.70;99.90;;;;;;5069239;28;20013;-76
2023/12/28 03:51:49;;;;;;;6.55;2.70;;;-1.70;99.90;;;;;;5075045;28;20040;-75
2023/12/28 03:54:19;;;;;;;4.93;2.75;;;-1.70;99.90;;;;;;5090145;28;20080;-75
2023/12/28 03:57:14;;;;;;;12.73;3.95;;;-1.70;99.90;;;;;;5093985;28;20021;-75
2023/12/28 03:59:40;;;;;;;4.47;3.80;;;-1.60;99.90;;;;;;5095783;28;20024;-76
2023/12/28 04:02:06;;;;;;;5.13;3.03;;;-1.50;99.90;;;;;;5082922;28;20056;-79
2023/12/28 04:04:32;;;;;;;6.03;3.20;;;-1.40;99.90;;;;;;5075925;28;20498;-80
2023/12/28 04:06:57;;;;;;;7.28;3.85;;;-1.50;99.90;;;;;;5056362;28;20021;-80
2023/12/28 04:09:23;;;;;;;5.53;4.20;;;-1.50;99.90;;;;;;5039850;28;20036;-80
2023/12/28 04:12:11;;;;;;;5.03;3.35;;;-1.50;99.90;;;;;;5056185;28;20063;-77
2023/12/28 04:14:37;;;;;;;5.03;3.03;;;-1.70;99.90;;;;;;5079607;22;20118;-78
2023/12/28 04:17:02;;;;;;;5.57;3.10;;;-1.30;99.90;;;;;;5040819;28;20025;-79
2023/12/28 04:19:40;;;;;;;3.78;3.05;;;-1.80;99.90;;;;;;5048826;28;20040;-75
2023/12/28 04:22:06;;;;;;;5.90;3.65;;;-1.80;99.90;;;;;;5074263;28;20025;-75
2023/12/28 04:24:32;;;;;;;4.55;2.55;;;-1.70;99.90;;;;;;5071393;28;20020;-76
2023/12/28 04:26:59;;;;;;;3.88;2.70;;;-1.70;99.90;;;;;;5054159;28;20039;-87
2023/12/28 04:29:25;;;;;;;6.43;2.45;;;-1.60;99.90;;;;;;5045273;28;20052;-82
2023/12/28 04:31:56;;;;;;;5.57;2.95;;;-1.50;99.90;;;;;;5073026;28;20025;-75
2023/12/28 04:34:22;;;;;;;3.55;3.00;;;-1.60;99.90;;;;;;5043433;28;20039;-78
2023/12/28 04:36:48;;;;;;;5.85;2.83;;;-1.10;99.90;;;;;;5058237;28;20509;-76
2023/12/28 04:39:14;;;;;;;3.15;2.20;;;-1.70;99.90;;;;;;5034939;28;20033;-77
2023/12/28 04:41:40;;;;;;;5.50;2.20;;;-1.60;99.90;;;;;;5034135;28;20021;-76
2023/12/28 04:44:05;;;;;;;4.20;2.38;;;-1.40;99.90;;;;;;5051260;28;20079;-80
2023/12/28 04:46:31;;;;;;;4.13;2.08;;;-1.40;99.90;;;;;;5050621;28;20423;-79
2023/12/28 04:48:57;;;;;;;2.58;1.80;;;-1.30;99.90;;;;;;5033599;28;20380;-83
2023/12/28 04:51:22;;;;;;;3.65;1.90;;;-1.00;99.90;;;;;;5059895;28;20041;-79
2023/12/28 04:53:48;;;;;;;3.97;2.13;;;-0.90;99.90;;;;;;5047067;28;20088;-86
2023/12/28 04:56:18;;;;;;;3.53;2.08;;;-1.10;99.90;;;;;;5049159;28;20420;-87
2023/12/28 04:58:44;;;;;;;3.28;2.03;;;-1.10;99.90;;;;;;5068347;28;20045;-76
2023/12/28 05:01:10;;;;;;;3.92;2.65;;;-1.20;99.90;;;;;;5050214;28;20058;-81
2023/12/28 05:03:35;;;;;;;6.15;3.10;;;-1.20;99.90;;;;;;5051627;28;20029;-83
2023/12/28 05:06:03;;;;;;;2.80;2.10;;;-1.30;99.90;;;;;;5074899;28;19997;-75
2023/12/28 05:08:28;;;;;;;3.08;1.88;;;-1.30;99.90;;;;;;5037954;28;20017;-82
2023/12/28 05:10:54;;;;;;;9.55;2.40;;;-1.20;99.90;;;;;;5050066;28;20056;-75
2023/12/28 05:13:20;;;;;;;4.18;2.28;;;-1.30;99.90;;;;;;5047342;28;20496;-89
2023/12/28 05:15:45;;;;;;;3.28;2.65;;;-1.30;99.90;;;;;;5030461;28;20116;-77
2023/12/28 05:18:11;;;;;;;3.47;2.13;;;-1.40;99.90;;;;;;5047587;28;20028;-89
2023/12/28 05:20:36;;;;;;;3.05;2.17;;;-1.30;99.90;;;;;;5049388;28;20021;-83
2023/12/28 05:23:02;;;;;;;5.10;2.42;;;-1.20;99.90;;;;;;5055255;28;20053;-79
2023/12/28 05:25:29;;;;;;;3.15;2.25;;;-1.30;99.90;;;;;;5064416;28;20009;-76
2023/12/28 05:27:55;;;;;;;6.68;2.47;;;-1.30;99.90;;;;;;5062004;28;20079;-81
2023/12/28 05:30:21;;;;;;;2.85;2.35;;;-1.30;99.90;;;;;;5062712;28;20032;-77
2023/12/28 05:32:46;;;;;;;4.88;1.98;;;-1.40;99.90;;;;;;5042624;28;20029;-77
2023/12/28 05:35:12;;;;;;;3.95;2.45;;;-1.30;99.90;;;;;;5070772;28;20108;-83
2023/12/28 05:37:38;;;;;;;4.70;2.22;;;-1.20;99.90;;;;;;5066336;28;20031;-78
2023/12/28 05:40:06;;;;;;;4.07;2.15;;;-1.20;99.90;;;;;;5073605;28;20508;-82
2023/12/28 05:42:37;;;;;;;1.95;1.75;;;-1.20;99.90;;;;;;5054097;28;20012;-80
2023/12/28 05:45:04;;;;;;;3.88;2.00;;;-0.90;99.90;;;;;;5057865;28;20143;-79
2023/12/28 05:47:30;;;;;;;6.78;2.75;;;-1.40;99.90;;;;;;5069219;28;20029;-76
2023/12/28 05:49:55;;;;;;;4.03;3.08;;;-1.20;99.90;;;;;;5054376;28;20029;-82
2023/12/28 05:52:21;;;;;;;5.32;2.58;;;-1.10;99.90;;;;;;5062294;28;20024;-76
2023/12/28 05:54:48;;;;;;;4.68;2.40;;;-1.10;99.90;;;;;;5067813;28;20029;-75
2023/12/28 05:57:13;;;;;;;5.82;2.90;;;-1.10;99.90;;;;;;5058603;28;20063;-79
2023/12/28 05:59:42;;;;;;;5.65;3.53;;;-1.00;99.90;;;;;;5058534;28;20025;-79
2023/12/28 06:02:08;;;;;;;5.00;3.45;;;-0.70;99.90;;;;;;5040857;28;20036;-81
2023/12/28 06:04:36;;;;;;;3.75;2.65;;;-0.60;99.90;;;;;;5075347;28;20021;-78
2023/12/28 06:07:07;;;;;;;4.68;3.72;;;-0.50;99.90;;;;;;5075837;28;20005;-76
2023/12/28 06:09:33;;;;;;;3.88;2.38;;;-0.70;99.90;;;;;;5045296;28;20041;-80
2023/12/28 06:11:58;;;;;;;4.53;2.70;;;-0.70;99.90;;;;;;5071220;28;20065;-82
2023/12/28 06:14:27;;;;;;;7.88;3.13;;;-0.60;99.90;;;;;;5066657;28;20037;-76
2023/12/28 06:16:52;;;;;;;4.18;2.90;;;-0.50;99.90;;;;;;5074122;28;20029;-78
2023/12/28 06:19:28;;;;;;;3.78;2.70;;;-0.40;99.90;;;;;;5057658;28;20017;-75
2023/12/28 06:21:58;;;;;;;4.93;3.20;;;-0.30;99.90;;;;;;5056343;28;20089;-76
2023/12/28 06:24:30;;;;;;;3.22;2.60;;;-0.20;99.90;;;;;;5074024;28;20035;-77
2023/12/28 06:26:56;;;;;;;2.58;2.38;;;-0.10;99.90;;;;;;5073410;28;20084;-76
2023/12/28 06:29:22;;;;;;;4.15;2.58;;;0.00;99.90;;;;;;5073868;28;20044;-77
2023/12/28 06:31:48;;;;;;;2.70;2.15;;;0.20;99.90;;;;;;5066815;28;20028;-82
2023/12/28 06:34:13;;;;;;;4.25;3.08;;;0.30;99.90;;;;;;5049818;28;20021;-76
2023/12/28 06:36:39;;;;;;;3.92;2.50;;;0.50;99.90;;;;;;5065282;28;20017;-78
2023/12/28 06:39:27;;;;;;;3.25;2.33;;;0.60;99.90;;;;;;5068676;28;20422;-76
2023/12/28 06:48:33;;;;;;;5.07;3.00;;;0.70;99.90;;;;;;4921678;29;20144;-81
2023/12/28 06:50:59;;;;;;;8.02;5.38;;;0.70;99.90;;;;;;5044423;28;20048;-81
2023/12/28 06:53:28;;;;;;;13.02;5.95;;;0.50;99.90;;;;;;5054013;28;20029;-76
2023/12/28 06:55:54;;;;;;;3.65;2.22;;;0.50;99.90;;;;;;5057255;28;20033;-76
2023/12/28 06:58:20;;;;;;;5.40;2.53;;;0.40;99.90;;;;;;5074291;28;20028;-81
2023/12/28 07:00:51;;;;;;;4.00;2.88;;;0.40;99.90;;;;;;5072495;28;20029;-76
2023/12/28 07:03:17;;;;;;;4.35;2.67;;;0.50;99.90;;;;;;5069852;28;20036;-80
2023/12/28 07:06:12;;;;;;;4.45;2.80;;;0.60;99.90;;;;;;5055685;28;20048;-75
2023/12/28 07:08:43;;;;;;;5.25;2.95;;;0.60;99.90;;;;;;5072579;28;20041;-76
2023/12/28 07:11:14;;;;;;;5.38;2.33;;;0.70;99.90;;;;;;5070200;28;20052;-76
2023/12/28 07:13:40;;;;;;;4.40;3.30;;;0.80;99.90;;;;;;5059698;28;20045;-81
2023/12/28 07:16:07;;;;;;;3.92;2.80;;;0.80;99.90;;;;;;5061361;28;20028;-80
2023/12/28 07:18:33;;;;;;;4.70;2.00;;;0.90;99.90;;;;;;5052090;28;20143;-80
2023/12/28 07:21:00;;;;;;;4.43;2.47;;;1.40;99.90;;;;;;5052156;28;20048;-80
2023/12/28 07:23:26;;;;;;;4.00;2.78;;;1.00;99.90;;;;;;5052010;28;20155;-79
2023/12/28 07:26:30;;;;;;;3.95;2.85;;;1.10;99.90;;;;;;5050408;28;20054;-79
2023/12/28 07:28:56;;;;;;;3.03;2.70;;;1.20;99.90;;;;;;4933756;29;20043;-80
2023/12/28 07:31:26;;;;;;;4.85;2.42;;;1.30;99.90;;;;;;4933631;29;20093;-80
2023/12/28 07:33:52;;;;;;;2.42;2.17;;;1.30;99.90;;;;;;4999198;28;20084;-81
2023/12/28 07:36:18;;;;;;;3.03;1.92;;;1.30;99.90;;;;;;5050701;28;20052;-80
2023/12/28 07:38:46;;;;;;;3.03;2.40;;;1.20;99.90;;;;;;5050227;28;20611;-79
2023/12/28 07:41:12;;;;;;;3.72;2.58;;;1.20;99.90;;;;;;5049958;28;20535;-79
2023/12/28 07:43:38;;;;;;;6.03;3.10;;;1.10;99.90;;;;;;5050369;28;20025;-80
2023/12/28 07:46:04;;;;;;;3.53;2.65;;;1.20;99.90;;;;;;5050618;28;20024;-79
2023/12/28 07:48:31;;;;;;;3.63;2.67;;;1.20;99.90;;;;;;5049292;28;20013;-80
2023/12/28 07:51:04;;;;;;;7.50;2.60;;;1.30;99.90;;;;;;5030293;28;20065;-80
2023/12/28 07:53:36;;;;;;;4.07;2.95;;;1.30;99.90;;;;;;5029966;28;20489;-79
2023/12/28 07:56:14;;;;;;;2.97;2.30;;;1.40;99.90;;;;;;5029908;28;20108;-79
2023/12/28 08:02:02;;;;;;;5.47;3.38;;;1.60;99.90;;;;;;4950410;28;20086;-80
2023/12/28 08:04:27;;;;;;;4.35;2.72;;;1.60;99.90;;;;;;4952825;29;20023;-77
2023/12/28 08:07:28;;;;;;;6.80;3.30;;;1.70;99.90;;;;;;5004680;28;20037;-80
2023/12/28 08:10:49;;;;;;;7.80;4.70;;;1.70;99.90;;;;;;4948784;28;20618;-80
2023/12/28 08:24:42;;;;;;;;;;;;;;;;;;;;;
2023/12/28 08:30:57;;;;;;;6.28;2.50;;;2.60;99.90;;;;;;4896580;29;20655;-81
2023/12/28 08:38:27;;;;;;;2.28;1.95;;;2.80;99.90;;;;;;4941690;29;20045;-80
2023/12/28 08:47:42;;;;;;;11.05;4.53;;;2.80;99.90;;;;;;4919688;29;20560;-81
2023/12/28 08:54:46;;;;;;;;;;;;;;;;;;;;;
2023/12/28 08:57:39;;;;;;;6.15;3.78;;;3.00;99.90;;;;;;4853252;29;20029;-76
2023/12/28 09:05:20;;;;;;;4.10;2.85;;;3.40;99.90;;;;;;4941433;28;20121;-80
2023/12/28 09:07:42;;;;;;;10.98;4.13;;;3.50;99.90;;;;;;4968062;28;20067;-82
2023/12/28 09:10:12;;;;;;;5.50;3.92;;;3.60;99.90;;;;;;4972524;28;20031;-81
2023/12/28 09:12:38;;;;;;;6.45;3.35;;;3.70;99.90;;;;;;4973529;28;20066;-80
2023/12/28 09:15:07;;;;;;;6.10;3.28;;;3.80;99.90;;;;;;5026080;28;20044;-81
2023/12/28 09:17:33;;;;;;;4.85;3.17;;;4.00;99.90;;;;;;5056340;28;20021;-81
2023/12/28 09:20:01;;;;;;;5.85;4.38;;;4.20;99.90;;;;;;5055984;28;20033;-80
2023/12/28 09:22:26;;;;;;;5.97;3.70;;;4.30;99.90;;;;;;5053905;28;20480;-78
2023/12/28 09:24:52;;;;;;;5.60;3.35;;;4.30;99.90;;;;;;5033536;28;20029;-80
2023/12/28 09:27:18;;;;;;;7.80;3.15;;;4.40;99.90;;;;;;5035584;28;20025;-81
2023/12/28 09:29:44;;;;;;;6.20;4.18;;;4.40;99.90;;;;;;5033976;28;20030;-80
2023/12/28 09:32:10;;;;;;;7.07;3.90;;;4.40;99.90;;;;;;5036604;28;20039;-80
2023/12/28 09:34:36;;;;;;;5.30;3.92;;;4.40;99.90;;;;;;5042856;28;20018;-81
2023/12/28 09:37:01;;;;;;;6.15;3.35;;;4.40;99.90;;;;;;5041379;28;20452;-80
2023/12/28 09:39:27;;;;;;;5.35;3.15;;;4.40;99.90;;;;;;5048164;28;20021;-81
2023/12/28 09:42:32;;;;;;;5.65;2.85;;;4.40;99.90;;;;;;5062427;28;20021;-80
2023/12/28 09:44:57;;;;;;;8.05;3.53;;;4.60;99.90;;;;;;5053017;28;20040;-80
2023/12/28 09:47:26;;;;;;;5.03;4.00;;;4.60;99.90;;;;;;5035512;28;20029;-81
2023/12/28 09:50:20;;;;;;;4.70;3.80;;;4.80;99.90;;;;;;5040827;28;20033;-81
2023/12/28 09:52:46;;;;;;;13.00;9.15;;;4.80;99.90;;;;;;5036618;28;20021;-79
2023/12/28 09:55:11;;;;;;;9.88;5.90;;;4.70;99.90;;;;;;5033002;28;20462;-80
2023/12/28 09:57:37;;;;;;;7.60;5.90;;;4.80;99.90;;;;;;5033804;28;20029;-81
2023/12/28 10:00:09;;;;;;;8.07;4.93;;;4.80;99.90;;;;;;5037572;28;20029;-77
2023/12/28 10:02:36;;;;;;;10.02;5.45;;;4.80;99.90;;;;;;5033282;28;20030;-79
2023/12/28 10:05:02;;;;;;;7.50;5.07;;;5.00;99.90;;;;;;5033274;28;20021;-79
2023/12/28 10:07:27;;;;;;;7.15;4.68;;;5.10;99.90;;;;;;5033330;28;20036;-78
2023/12/28 10:09:53;;;;;;;8.15;3.65;;;5.20;99.90;;;;;;5013286;28;20466;-78
2023/12/28 10:12:19;;;;;;;5.07;3.97;;;5.30;99.90;;;;;;5045478;28;20143;-79
2023/12/28 10:14:58;;;;;;;7.63;4.85;;;5.60;99.90;;;;;;5050365;28;20045;-76
2023/12/28 10:17:34;;;;;;;10.10;5.25;;;5.70;99.90;;;;;;5051602;28;20029;-78
2023/12/28 12:13:36;;;;;;;3.45;1.95;;;9.50;99.90;;;;;;4783505;29;20061;-80
2023/12/28 12:59:31;;;;;;;7.60;4.90;;;9.70;99.90;;;;;;4791922;29;20050;-78
2023/12/28 13:10:10;;;;;;;8.60;5.00;;;8.60;99.90;;;;;;4848351;29;20039;-77
2023/12/28 13:54:19;;;;;;;18.13;9.02;;;8.10;99.90;;;;;;4908185;29;20040;-79
2023/12/28 13:57:04;;;;;;;17.95;9.05;;;8.20;99.90;;;;;;4916905;29;20024;-83
2023/12/28 16:13:49;;;;;;;9.20;6.00;;;6.90;99.90;;;;;;3375035;23;20053;-83
2023/12/28 16:40:36;;;;;;;82.47;21.83;;;6.70;99.90;;;;;;4925496;29;20069;-76
2023/12/28 16:43:02;;;;;;;6.50;4.18;;;6.60;99.90;;;;;;4915357;29;20036;-75
2023/12/28 16:45:28;;;;;;;8.25;4.07;;;6.60;99.90;;;;;;4924490;29;20121;-80
2023/12/28 16:48:05;;;;;;;21.00;8.23;;;6.50;99.90;;;;;;5040047;28;20024;-76
2023/12/28 16:50:31;;;;;;;5.80;4.20;;;6.60;99.90;;;;;;5052796;28;20407;-80
2023/12/28 16:52:57;;;;;;;39.97;15.15;;;6.50;99.90;;;;;;5046531;28;20091;-81
2023/12/28 16:55:25;;;;;;;12.52;7.35;;;6.50;99.90;;;;;;5053481;28;20037;-83
2023/12/28 16:57:52;;;;;;;;;;;6.30;99.90;;;;;;5071649;28;20021;-83
2023/12/28 17:00:36;;;;;;;6.68;4.57;;;6.30;99.90;;;;;;5074456;28;19913;-80
2023/12/28 17:03:05;;;;;;;8.75;5.97;;;6.20;99.90;;;;;;5075332;28;20072;-83
2023/12/28 17:05:31;;;;;;;163.38;76.75;;;6.10;99.90;;;;;;5058801;28;20013;-81
2023/12/28 17:08:22;;;;;;;22.20;12.50;;;6.10;99.90;;;;;;5074863;28;20024;-80
2023/12/28 17:11:27;;;;;;;19.13;11.23;;;6.00;99.90;;;;;;5048770;28;20068;-75
2023/12/28 17:31:33;;;;;;;14.17;5.97;;;5.90;99.90;;;;;;4893399;29;20091;-78
2023/12/28 17:51:27;;;;;;;9.30;6.05;;;5.90;99.90;;;;;;4859541;29;20048;-80
2023/12/28 18:01:51;;;;;;;9.05;7.10;;;5.80;99.90;;;;;;4881062;29;20166;-82
2023/12/28 18:41:38;;;;;;;14.18;8.10;;;5.90;99.90;;;;;;4947651;28;20113;-78
2023/12/28 18:44:04;;;;;;;16.98;9.07;;;5.80;99.90;;;;;;4962701;28;20061;-79
2023/12/28 18:46:32;;;;;;;11.63;8.02;;;5.80;99.90;;;;;;4982147;28;20030;-80
2023/12/28 18:48:58;;;;;;;15.55;8.68;;;5.80;99.90;;;;;;5044766;28;20045;-78
2023/12/28 18:51:24;;;;;;;13.95;8.88;;;5.90;99.90;;;;;;5041589;28;20107;-80
2023/12/28 18:53:50;;;;;;;15.27;8.95;;;5.90;99.90;;;;;;5041116;28;20029;-78
2023/12/28 18:56:18;;;;;;;17.45;8.55;;;5.90;99.90;;;;;;5041252;28;20336;-75
2023/12/28 18:58:44;;;;;;;13.27;8.20;;;5.90;99.90;;;;;;5043962;28;20017;-79
2023/12/28 19:01:19;;;;;;;15.15;8.93;;;5.90;99.90;;;;;;5061336;28;20287;-78
2023/12/28 19:03:45;;;;;;;12.85;8.60;;;5.80;99.90;;;;;;5053832;28;20032;-76
2023/12/28 19:06:13;;;;;;;12.65;8.73;;;5.60;99.90;;;;;;5061419;28;20070;-79
2023/12/28 19:08:39;;;;;;;12.38;8.40;;;5.70;99.90;;;;;;5058654;28;20020;-78
2023/12/28 19:11:12;;;;;;;12.63;9.02;;;5.70;99.90;;;;;;5055950;28;20066;-78
2023/12/28 19:13:44;;;;;;;15.98;9.73;;;5.80;99.90;;;;;;5060910;28;20043;-78
2023/12/28 19:16:22;;;;;;;13.13;8.43;;;5.70;99.90;;;;;;5051543;28;20060;-77
2023/12/28 19:19:03;;;;;;;14.27;8.55;;;5.70;99.90;;;;;;5052650;28;20017;-79
2023/12/28 19:21:29;;;;;;;10.50;7.68;;;5.80;99.90;;;;;;5052347;28;20040;-77
2023/12/28 19:23:54;;;;;;;11.23;8.20;;;5.70;99.90;;;;;;5063967;28;20469;-79
2023/12/28 19:26:20;;;;;;;13.82;9.27;;;5.70;99.90;;;;;;5043900;28;20039;-80
2023/12/28 19:28:46;;;;;;;15.35;8.80;;;5.70;99.90;;;;;;5054306;28;20051;-78
2023/12/28 19:31:11;;;;;;;26.30;13.52;;;5.60;99.90;;;;;;5060672;28;20414;-79
2023/12/28 19:33:37;;;;;;;31.90;18.25;;;5.60;99.90;;;;;;5049266;28;20284;-77
2023/12/28 19:36:03;;;;;;;51.05;21.85;;;5.60;99.90;;;;;;5041825;28;20028;-78
2023/12/28 19:38:29;;;;;;;42.55;23.35;;;5.50;99.90;;;;;;5041960;28;20032;-77
2023/12/28 19:40:54;;;;;;;51.08;24.27;;;5.50;99.90;;;;;;5041106;28;20085;-78
2023/12/28 19:43:20;;;;;;;26.55;13.90;;;5.40;99.90;;;;;;5041349;28;20013;-79
2023/12/28 19:45:46;;;;;;;24.05;14.63;;;5.40;99.90;;;;;;5042701;28;20360;-78
2023/12/28 19:48:11;;;;;;;27.95;16.70;;;5.30;99.90;;;;;;5041839;28;20013;-79
2023/12/28 19:50:39;;;;;;;31.40;19.20;;;5.30;99.90;;;;;;5048648;28;20075;-78
2023/12/28 19:53:08;;;;;;;33.38;18.52;;;5.30;99.90;;;;;;5058011;28;20021;-79
2023/12/28 19:55:34;;;;;;;25.00;17.15;;;5.30;99.90;;;;;;5058678;28;20060;-79
2023/12/28 19:58:00;;;;;;;23.58;14.00;;;5.20;99.90;;;;;;5058474;28;20013;-79
2023/12/28 20:00:26;;;;;;;30.92;17.80;;;5.20;99.90;;;;;;5057540;28;20028;-75
2023/12/28 20:02:52;;;;;;;23.30;13.13;;;5.20;99.90;;;;;;5060847;28;20016;-79
2023/12/28 20:05:17;;;;;;;20.15;12.30;;;5.30;99.90;;;;;;5060856;28;20167;-79
2023/12/28 20:07:43;;;;;;;27.15;12.95;;;5.20;99.90;;;;;;5060880;28;20039;-78
2023/12/28 20:10:09;;;;;;;28.98;15.57;;;5.20;99.90;;;;;;5058133;28;20124;-79
2023/12/28 20:12:35;;;;;;;23.20;11.50;;;5.30;99.90;;;;;;5049319;28;20336;-78
2023/12/28 20:15:34;;;;;;;30.55;15.93;;;5.20;99.90;;;;;;5051620;28;20061;-80
2023/12/28 20:17:53;;;;;;;18.80;10.88;;;5.20;99.90;;;;;;5059030;28;20320;-78
2023/12/28 20:20:19;;;;;;;21.63;11.98;;;5.40;99.90;;;;;;5040932;28;20077;-76
2023/12/28 20:22:46;;;;;;;29.02;12.75;;;5.30;99.90;;;;;;5041492;28;20076;-78
2023/12/28 20:25:11;;;;;;;19.20;11.90;;;5.40;99.90;;;;;;5042174;28;20048;-75
2023/12/28 20:27:40;;;;;;;15.77;10.35;;;5.40;99.90;;;;;;5040166;28;20028;-78
2023/12/28 20:30:12;;;;;;;17.83;11.15;;;5.30;99.90;;;;;;5040960;28;20038;-79
2023/12/28 20:32:51;;;;;;;22.48;11.90;;;5.40;99.90;;;;;;5056035;28;20252;-79
2023/12/28 20:35:17;;;;;;;20.23;11.57;;;5.30;99.90;;;;;;5040603;28;20380;-79
2023/12/28 20:38:07;;;;;;;17.38;9.82;;;5.30;99.90;;;;;;5039465;28;20040;-79
2023/12/28 20:40:32;;;;;;;18.10;11.27;;;5.30;99.90;;;;;;5040147;28;20041;-79
2023/12/28 20:42:58;;;;;;;20.02;12.10;;;5.30;99.90;;;;;;5059477;28;20071;-76
2023/12/28 20:45:24;;;;;;;17.65;11.60;;;5.40;99.90;;;;;;5065534;28;20101;-79
2023/12/28 20:47:50;;;;;;;17.08;11.55;;;5.30;99.90;;;;;;5060709;28;20032;-78
2023/12/28 20:50:32;;;;;;;;;;;;;;;;;;;;;
2023/12/28 20:53:08;;;;;;;15.40;10.75;;;5.10;99.90;;;;;;5043216;28;20040;-78
2023/12/28 20:55:34;;;;;;;17.98;11.35;;;5.20;99.90;;;;;;5038239;28;20258;-76
2023/12/28 20:58:00;;;;;;;17.75;11.50;;;5.30;99.90;;;;;;5035052;28;20492;-75
2023/12/28 21:00:25;;;;;;;19.38;11.23;;;5.20;99.90;;;;;;5049089;28;20422;-78
2023/12/28 21:02:51;;;;;;;19.48;12.68;;;5.20;99.90;;;;;;5038735;28;20298;-79
2023/12/28 21:05:26;;;;;;;16.38;12.45;;;5.20;99.90;;;;;;5062600;28;20029;-80
2023/12/28 21:07:59;;;;;;;19.15;11.65;;;5.10;99.90;;;;;;5063168;28;20051;-80
2023/12/28 21:13:18;;;;;;;20.25;10.68;;;5.00;99.90;;;;;;5022421;28;20022;-78
2023/12/28 21:16:28;;;;;;;13.65;9.35;;;5.10;99.90;;;;;;5040682;28;20053;-79
2023/12/28 21:19:15;;;;;;;15.57;9.63;;;5.10;99.90;;;;;;5018106;28;20064;-79